sensor_id;sensor_type;location;lat;lon;timestamp;pressure;altitude;pressure_sealevel;temperature;humidity
59767;BME280;46248;58.364;25.582;2023-03-31T00:00:09;99868.06;;;-1.38;100.00
59767;BME280;46248;58.364;25.582;2023-03-31T00:03:32;99867.19;;;-1.35;100.00
59767;BME280;46248;58.364;25.582;2023-03-31T00:06:58;99870.63;;;-1.38;100.00
59767;BME280;46248;58.364;25.582;2023-03-31T00:10:20;99863.81;;;-1.39;100.00
59767;BME280;46248;58.364;25.582;2023-03-31T00:13:43;99862.13;;;-1.42;100.00
59767;BME280;46248;58.364;25.582;2023-03-31T00:17:07;99857.84;;;-1.41;100.00
59767;BME280;46248;58.364;25.582;2023-03-31T00:20:29;99848.53;;;-1.48;100.00
59767;BME280;46248;58.364;25.582;2023-03-31T00:23:54;99852.75;;;-1.46;100.00
59767;BME280;46248;58.364;25.582;2023-03-31T00:27:17;99852.75;;;-1.44;100.00
59767;BME280;46248;58.364;25.582;2023-03-31T00:30:39;99845.03;;;-1.44;100.00
59767;BME280;46248;58.364;25.582;2023-03-31T00:34:03;99851.94;;;-1.48;100.00
59767;BME280;46248;58.364;25.582;2023-03-31T00:37:25;99852.78;;;-1.47;100.00
59767;BME280;46248;58.364;25.582;2023-03-31T00:40:47;99844.19;;;-1.45;100.00
59767;BME280;46248;58.364;25.582;2023-03-31T00:44:14;99837.34;;;-1.46;100.00
59767;BME280;46248;58.364;25.582;2023-03-31T00:47:38;99837.28;;;-1.43;100.00
59767;BME280;46248;58.364;25.582;2023-03-31T00:51:04;99820.28;;;-1.51;100.00
59767;BME280;46248;58.364;25.582;2023-03-31T00:54:29;99833.91;;;-1.45;100.00
59767;BME280;46248;58.364;25.582;2023-03-31T00:57:54;99834.75;;;-1.44;100.00
59767;BME280;46248;58.364;25.582;2023-03-31T01:01:19;99827.97;;;-1.48;100.00
59767;BME280;46248;58.364;25.582;2023-03-31T01:04:47;99827.91;;;-1.42;100.00
59767;BME280;46248;58.364;25.582;2023-03-31T01:08:18;99832.19;;;-1.46;100.00
59767;BME280;46248;58.364;25.582;2023-03-31T01:11:44;99829.63;;;-1.44;100.00
59767;BME280;46248;58.364;25.582;2023-03-31T01:15:11;99821.03;;;-1.43;100.00
59767;BME280;46248;58.364;25.582;2023-03-31T01:18:32;99821.03;;;-1.43;100.00
59767;BME280;46248;58.364;25.582;2023-03-31T01:26:27;99788.75;;;-1.59;100.00
59767;BME280;46248;58.364;25.582;2023-03-31T01:30:29;99809.16;;;-1.50;100.00
59767;BME280;46248;58.364;25.582;2023-03-31T01:34:18;99796.34;;;-1.52;100.00
59767;BME280;46248;58.364;25.582;2023-03-31T01:38:19;99792.09;;;-1.53;100.00
59767;BME280;46248;58.364;25.582;2023-03-31T01:41:54;99791.19;;;-1.50;100.00
59767;BME280;46248;58.364;25.582;2023-03-31T01:45:27;99789.47;;;-1.51;100.00
59767;BME280;46248;58.364;25.582;2023-03-31T01:48:56;99785.19;;;-1.48;100.00
59767;BME280;46248;58.364;25.582;2023-03-31T01:52:24;99786.91;;;-1.48;100.00
59767;BME280;46248;58.364;25.582;2023-03-31T01:55:56;99779.19;;;-1.50;100.00
59767;BME280;46248;58.364;25.582;2023-03-31T01:59:26;99774.06;;;-1.48;100.00
59767;BME280;46248;58.364;25.582;2023-03-31T02:02:55;99776.59;;;-1.47;100.00
59767;BME280;46248;58.364;25.582;2023-03-31T02:06:21;99767.16;;;-1.45;100.00
59767;BME280;46248;58.364;25.582;2023-03-31T02:09:49;99762.91;;;-1.47;100.00
59767;BME280;46248;58.364;25.582;2023-03-31T02:13:12;99766.31;;;-1.47;100.00
59767;BME280;46248;58.364;25.582;2023-03-31T02:16:39;99763.75;;;-1.47;100.00
59767;BME280;46248;58.364;25.582;2023-03-31T02:20:10;99763.75;;;-1.45;100.00
59767;BME280;46248;58.364;25.582;2023-03-31T02:23:36;99763.75;;;-1.47;100.00
59767;BME280;46248;58.364;25.582;2023-03-31T02:27:03;99756.06;;;-1.47;100.00
59767;BME280;46248;58.364;25.582;2023-03-31T02:30:31;99753.47;;;-1.45;100.00
59767;BME280;46248;58.364;25.582;2023-03-31T02:33:58;99754.31;;;-1.45;100.00
59767;BME280;46248;58.364;25.582;2023-03-31T02:37:20;99757.72;;;-1.44;100.00
59767;BME280;46248;58.364;25.582;2023-03-31T02:40:43;99759.47;;;-1.45;100.00
59767;BME280;46248;58.364;25.582;2023-03-31T02:44:05;99758.56;;;-1.42;100.00
59767;BME280;46248;58.364;25.582;2023-03-31T02:47:26;99755.97;;;-1.41;100.00
59767;BME280;46248;58.364;25.582;2023-03-31T02:51:11;99763.66;;;-1.39;100.00
59767;BME280;46248;58.364;25.582;2023-03-31T02:58:48;99749.06;;;-1.35;100.00
59767;BME280;46248;58.364;25.582;2023-03-31T03:02:17;99733.59;;;-1.34;100.00
59767;BME280;46248;58.364;25.582;2023-03-31T03:05:47;99726.72;;;-1.32;100.00
59767;BME280;46248;58.364;25.582;2023-03-31T03:09:26;99725.03;;;-1.33;100.00
59767;BME280;46248;58.364;25.582;2023-03-31T03:12:56;99728.47;;;-1.34;100.00
59767;BME280;46248;58.364;25.582;2023-03-31T03:16:22;99720.81;;;-1.35;100.00
59767;BME280;46248;58.364;25.582;2023-03-31T03:19:51;99721.59;;;-1.33;100.00
59767;BME280;46248;58.364;25.582;2023-03-31T03:23:14;99719.00;;;-1.30;100.00
59767;BME280;46248;58.364;25.582;2023-03-31T03:26:38;99721.50;;;-1.27;100.00
59767;BME280;46248;58.364;25.582;2023-03-31T03:30:00;99712.91;;;-1.25;100.00
59767;BME280;46248;58.364;25.582;2023-03-31T03:33:24;99714.63;;;-1.24;100.00
59767;BME280;46248;58.364;25.582;2023-03-31T03:36:47;99691.56;;;-1.28;100.00
59767;BME280;46248;58.364;25.582;2023-03-31T03:40:09;99686.44;;;-1.27;100.00
59767;BME280;46248;58.364;25.582;2023-03-31T03:43:33;99686.47;;;-1.31;100.00
59767;BME280;46248;58.364;25.582;2023-03-31T03:46:55;99676.22;;;-1.31;100.00
59767;BME280;46248;58.364;25.582;2023-03-31T03:50:17;99670.25;;;-1.33;100.00
59767;BME280;46248;58.364;25.582;2023-03-31T03:53:39;99683.84;;;-1.27;100.00
59767;BME280;46248;58.364;25.582;2023-03-31T03:57:00;99675.31;;;-1.30;100.00
59767;BME280;46248;58.364;25.582;2023-03-31T04:00:24;99673.53;;;-1.25;100.00
59767;BME280;46248;58.364;25.582;2023-03-31T04:03:46;99682.94;;;-1.24;100.00
59767;BME280;46248;58.364;25.582;2023-03-31T04:07:08;99676.09;;;-1.25;100.00
59767;BME280;46248;58.364;25.582;2023-03-31T04:10:29;99673.53;;;-1.25;100.00
59767;BME280;46248;58.364;25.582;2023-03-31T04:13:51;99662.38;;;-1.24;100.00
59767;BME280;46248;58.364;25.582;2023-03-31T04:17:15;99651.25;;;-1.25;100.00
59767;BME280;46248;58.364;25.582;2023-03-31T04:20:36;99652.88;;;-1.18;100.00
59767;BME280;46248;58.364;25.582;2023-03-31T04:23:58;99654.53;;;-1.15;100.00
59767;BME280;46248;58.364;25.582;2023-03-31T04:27:21;99624.78;;;-1.28;100.00
59767;BME280;46248;58.364;25.582;2023-03-31T04:30:46;99642.63;;;-1.19;100.00
59767;BME280;46248;58.364;25.582;2023-03-31T04:34:11;99644.34;;;-1.20;100.00
59767;BME280;46248;58.364;25.582;2023-03-31T04:37:33;99641.78;;;-1.21;100.00
59767;BME280;46248;58.364;25.582;2023-03-31T04:40:58;99633.22;;;-1.20;100.00
59767;BME280;46248;58.364;25.582;2023-03-31T04:44:20;99634.84;;;-1.16;100.00
59767;BME280;46248;58.364;25.582;2023-03-31T04:47:42;99639.88;;;-1.10;100.00
59767;BME280;46248;58.364;25.582;2023-03-31T04:51:05;99629.66;;;-1.13;100.00
59767;BME280;46248;58.364;25.582;2023-03-31T04:54:28;99630.44;;;-1.09;100.00
59767;BME280;46248;58.364;25.582;2023-03-31T04:57:50;99626.19;;;-1.09;100.00
59767;BME280;46248;58.364;25.582;2023-03-31T05:01:12;99626.91;;;-1.02;100.00
59767;BME280;46248;58.364;25.582;2023-03-31T05:04:38;99629.47;;;-1.02;100.00
59767;BME280;46248;58.364;25.582;2023-03-31T05:08:03;99629.44;;;-1.01;100.00
59767;BME280;46248;58.364;25.582;2023-03-31T05:11:25;99633.66;;;-0.97;100.00
59767;BME280;46248;58.364;25.582;2023-03-31T05:14:48;99634.50;;;-0.96;100.00
59767;BME280;46248;58.364;25.582;2023-03-31T05:18:10;99624.22;;;-0.96;100.00
59767;BME280;46248;58.364;25.582;2023-03-31T05:21:32;99617.34;;;-0.96;100.00
59767;BME280;46248;58.364;25.582;2023-03-31T05:24:57;99608.81;;;-0.98;100.00
59767;BME280;46248;58.364;25.582;2023-03-31T05:28:19;99623.28;;;-0.92;100.00
59767;BME280;46248;58.364;25.582;2023-03-31T05:31:41;99606.25;;;-0.96;100.00
59767;BME280;46248;58.364;25.582;2023-03-31T05:35:03;99584.97;;;-1.03;100.00
59767;BME280;46248;58.364;25.582;2023-03-31T05:38:26;99606.25;;;-0.96;100.00
59767;BME280;46248;58.364;25.582;2023-03-31T05:41:52;99598.50;;;-0.95;100.00
59767;BME280;46248;58.364;25.582;2023-03-31T05:45:14;99601.03;;;-0.93;100.00
59767;BME280;46248;58.364;25.582;2023-03-31T05:48:36;99583.28;;;-1.05;100.00
59767;BME280;46248;58.364;25.582;2023-03-31T05:51:58;99605.34;;;-0.94;100.00
59767;BME280;46248;58.364;25.582;2023-03-31T05:55:22;99602.72;;;-0.92;100.00
59767;BME280;46248;58.364;25.582;2023-03-31T05:58:46;99595.84;;;-0.90;100.00
59767;BME280;46248;58.364;25.582;2023-03-31T06:02:12;99593.22;;;-0.88;100.00
59767;BME280;46248;58.364;25.582;2023-03-31T06:05:34;99605.22;;;-0.87;100.00
59767;BME280;46248;58.364;25.582;2023-03-31T06:08:56;99590.59;;;-0.85;100.00
59767;BME280;46248;58.364;25.582;2023-03-31T06:12:18;99595.66;;;-0.81;100.00
59767;BME280;46248;58.364;25.582;2023-03-31T06:15:41;99596.41;;;-0.76;100.00
59767;BME280;46248;58.364;25.582;2023-03-31T06:19:03;99596.38;;;-0.74;100.00
59767;BME280;46248;58.364;25.582;2023-03-31T06:22:25;99602.38;;;-0.74;100.00
59767;BME280;46248;58.364;25.582;2023-03-31T06:25:47;99597.16;;;-0.71;100.00
59767;BME280;46248;58.364;25.582;2023-03-31T06:29:10;99602.25;;;-0.67;100.00
59767;BME280;46248;58.364;25.582;2023-03-31T06:32:34;99587.56;;;-0.62;100.00
59767;BME280;46248;58.364;25.582;2023-03-31T06:35:56;99587.47;;;-0.58;100.00
59767;BME280;46248;58.364;25.582;2023-03-31T06:39:19;99575.44;;;-0.56;100.00
59767;BME280;46248;58.364;25.582;2023-03-31T06:42:51;99584.63;;;-0.44;100.00
59767;BME280;46248;58.364;25.582;2023-03-31T06:46:13;99575.16;;;-0.42;100.00
59767;BME280;46248;58.364;25.582;2023-03-31T06:49:35;99581.00;;;-0.35;100.00
59767;BME280;46248;58.364;25.582;2023-03-31T06:52:57;99566.41;;;-0.33;100.00
59767;BME280;46248;58.364;25.582;2023-03-31T06:56:19;99567.88;;;-0.23;100.00
59767;BME280;46248;58.364;25.582;2023-03-31T06:59:42;99570.25;;;-0.15;100.00
59767;BME280;46248;58.364;25.582;2023-03-31T07:03:04;99575.25;;;-0.08;100.00
59767;BME280;46248;58.364;25.582;2023-03-31T07:06:26;99553.13;;;-0.16;100.00
59767;BME280;46248;58.364;25.582;2023-03-31T07:09:48;99564.13;;;-0.10;100.00
59767;BME280;46248;58.364;25.582;2023-03-31T07:13:09;99565.69;;;-0.03;100.00
59767;BME280;46248;58.364;25.582;2023-03-31T07:16:33;99551.09;;;-0.02;100.00
59767;BME280;46248;58.364;25.582;2023-03-31T07:19:55;99574.72;;;0.15;100.00
59767;BME280;46248;58.364;25.582;2023-03-31T07:23:17;99550.72;;;0.13;100.00
59767;BME280;46248;58.364;25.582;2023-03-31T07:26:39;99553.03;;;0.24;100.00
59767;BME280;46248;58.364;25.582;2023-03-31T07:30:01;99536.78;;;0.22;100.00
59767;BME280;46248;58.364;25.582;2023-03-31T07:33:25;99561.25;;;0.40;100.00
59767;BME280;46248;58.364;25.582;2023-03-31T07:36:47;99562.91;;;0.42;100.00
59767;BME280;46248;58.364;25.582;2023-03-31T07:40:10;99567.91;;;0.49;100.00
59767;BME280;46248;58.364;25.582;2023-03-31T07:43:32;99547.97;;;0.55;100.00
59767;BME280;46248;58.364;25.582;2023-03-31T07:46:54;99550.31;;;0.64;100.00
59767;BME280;46248;58.364;25.582;2023-03-31T07:50:19;99551.00;;;0.69;100.00
59767;BME280;46248;58.364;25.582;2023-03-31T07:53:41;99548.22;;;0.79;100.00
59767;BME280;46248;58.364;25.582;2023-03-31T07:57:03;99549.06;;;0.79;100.00
59767;BME280;46248;58.364;25.582;2023-03-31T08:00:28;99555.16;;;0.75;100.00
59767;BME280;46248;58.364;25.582;2023-03-31T08:03:53;99554.38;;;0.73;100.00
59767;BME280;46248;58.364;25.582;2023-03-31T08:07:17;99549.22;;;0.73;100.00
59767;BME280;46248;58.364;25.582;2023-03-31T08:10:39;99546.72;;;0.70;100.00
59767;BME280;46248;58.364;25.582;2023-03-31T08:14:01;99556.16;;;0.69;100.00
59767;BME280;46248;58.364;25.582;2023-03-31T08:17:23;99540.94;;;0.60;100.00
59767;BME280;46248;58.364;25.582;2023-03-31T08:20:45;99544.22;;;0.67;100.00
59767;BME280;46248;58.364;25.582;2023-03-31T08:24:10;99538.09;;;0.71;100.00
59767;BME280;46248;58.364;25.582;2023-03-31T08:27:33;99527.72;;;0.74;100.00
59767;BME280;46248;58.364;25.582;2023-03-31T08:30:55;99524.06;;;0.83;100.00
59767;BME280;46248;58.364;25.582;2023-03-31T08:34:17;99530.78;;;0.88;100.00
59767;BME280;46248;58.364;25.582;2023-03-31T08:37:39;99522.88;;;0.95;100.00
59767;BME280;46248;58.364;25.582;2023-03-31T08:41:05;99526.06;;;1.03;100.00
59767;BME280;46248;58.364;25.582;2023-03-31T08:44:31;99522.63;;;1.02;100.00
59767;BME280;46248;58.364;25.582;2023-03-31T08:47:59;99518.19;;;1.07;100.00
59767;BME280;46248;58.364;25.582;2023-03-31T08:51:28;99525.94;;;1.07;100.00
59767;BME280;46248;58.364;25.582;2023-03-31T08:54:54;99513.81;;;1.11;100.00
59767;BME280;46248;58.364;25.582;2023-03-31T08:58:28;99509.56;;;1.08;100.00
59767;BME280;46248;58.364;25.582;2023-03-31T09:01:58;99487.44;;;1.01;100.00
59767;BME280;46248;58.364;25.582;2023-03-31T09:05:39;99493.59;;;0.97;100.00
59767;BME280;46248;58.364;25.582;2023-03-31T09:09:24;99509.47;;;1.11;100.00
59767;BME280;46248;58.364;25.582;2023-03-31T09:12:54;99501.81;;;1.10;100.00
59767;BME280;46248;58.364;25.582;2023-03-31T09:16:23;99498.34;;;1.11;100.00
59767;BME280;46248;58.364;25.582;2023-03-31T09:19:50;99496.56;;;1.13;100.00
59767;BME280;46248;58.364;25.582;2023-03-31T09:23:22;99509.47;;;1.13;100.00
59767;BME280;46248;58.364;25.582;2023-03-31T09:26:48;99488.03;;;1.11;100.00
59767;BME280;46248;58.364;25.582;2023-03-31T09:30:15;99502.47;;;1.17;100.00
59767;BME280;46248;58.364;25.582;2023-03-31T09:33:43;99481.22;;;1.08;100.00
59767;BME280;46248;58.364;25.582;2023-03-31T09:37:08;99483.78;;;1.08;100.00
59767;BME280;46248;58.364;25.582;2023-03-31T09:40:30;99480.34;;;1.09;100.00
59767;BME280;46248;58.364;25.582;2023-03-31T09:43:52;99480.19;;;1.14;100.00
59767;BME280;46248;58.364;25.582;2023-03-31T09:47:16;99473.44;;;1.10;100.00
59767;BME280;46248;58.364;25.582;2023-03-31T09:50:44;99481.84;;;1.17;100.00
59767;BME280;46248;58.364;25.582;2023-03-31T09:54:14;99445.44;;;0.98;100.00
59767;BME280;46248;58.364;25.582;2023-03-31T09:57:40;99481.81;;;1.18;100.00
59767;BME280;46248;58.364;25.582;2023-03-31T10:01:04;99475.09;;;1.12;100.00
59767;BME280;46248;58.364;25.582;2023-03-31T10:04:31;99469.16;;;1.09;100.00
59767;BME280;46248;58.364;25.582;2023-03-31T10:08:19;99464.78;;;1.12;100.00
59767;BME280;46248;58.364;25.582;2023-03-31T10:11:52;99461.59;;;1.03;100.00
59767;BME280;46248;58.364;25.582;2023-03-31T10:15:19;99462.66;;;0.97;100.00
59767;BME280;46248;58.364;25.582;2023-03-31T10:18:42;99461.75;;;0.98;100.00
59767;BME280;46248;58.364;25.582;2023-03-31T10:22:08;99457.53;;;0.96;100.00
59767;BME280;46248;58.364;25.582;2023-03-31T10:25:36;99459.19;;;0.98;100.00
59767;BME280;46248;58.364;25.582;2023-03-31T10:28:58;99466.25;;;0.91;100.00
59767;BME280;46248;58.364;25.582;2023-03-31T10:32:23;99455.00;;;0.94;100.00
59767;BME280;46248;58.364;25.582;2023-03-31T10:35:49;99456.69;;;0.95;100.00
59767;BME280;46248;58.364;25.582;2023-03-31T10:39:16;99458.28;;;0.99;100.00
59767;BME280;46248;58.364;25.582;2023-03-31T10:42:43;99453.19;;;0.98;100.00
59767;BME280;46248;58.364;25.582;2023-03-31T10:46:07;99450.69;;;0.95;100.00
59767;BME280;46248;58.364;25.582;2023-03-31T10:49:29;99446.38;;;0.95;100.00
59767;BME280;46248;58.364;25.582;2023-03-31T10:52:51;99440.38;;;0.95;100.00
59767;BME280;46248;58.364;25.582;2023-03-31T10:56:33;99441.22;;;0.95;100.00
59767;BME280;46248;58.364;25.582;2023-03-31T11:00:09;99453.22;;;0.96;100.00
59767;BME280;46248;58.364;25.582;2023-03-31T11:03:49;99448.91;;;0.97;100.00
59767;BME280;46248;58.364;25.582;2023-03-31T11:07:26;99445.47;;;0.96;100.00
59767;BME280;46248;58.364;25.582;2023-03-31T11:11:03;99440.31;;;0.96;100.00
59767;BME280;46248;58.364;25.582;2023-03-31T11:14:41;99439.50;;;0.96;100.00
59767;BME280;46248;58.364;25.582;2023-03-31T11:18:23;99443.72;;;0.98;100.00
59767;BME280;46248;58.364;25.582;2023-03-31T11:21:59;99444.47;;;1.02;100.00
59767;BME280;46248;58.364;25.582;2023-03-31T11:25:42;99445.31;;;1.02;100.00
59767;BME280;46248;58.364;25.582;2023-03-31T11:29:18;99431.84;;;0.93;100.00
59767;BME280;46248;58.364;25.582;2023-03-31T11:32:51;99432.47;;;1.01;100.00
59767;BME280;46248;58.364;25.582;2023-03-31T11:36:37;99428.25;;;0.98;100.00
59767;BME280;46248;58.364;25.582;2023-03-31T11:40:17;99428.97;;;1.03;100.00
59767;BME280;46248;58.364;25.582;2023-03-31T11:43:46;99423.81;;;1.03;100.00
59767;BME280;46248;58.364;25.582;2023-03-31T11:47:13;99425.69;;;0.98;100.00
59767;BME280;46248;58.364;25.582;2023-03-31T11:50:38;99417.00;;;1.01;100.00
59767;BME280;46248;58.364;25.582;2023-03-31T11:54:04;99401.75;;;0.93;100.00
59767;BME280;46248;58.364;25.582;2023-03-31T11:57:32;99416.94;;;1.02;100.00
59767;BME280;46248;58.364;25.582;2023-03-31T12:01:02;99417.69;;;1.06;100.00
59767;BME280;46248;58.364;25.582;2023-03-31T12:04:32;99411.69;;;1.05;100.00
59767;BME280;46248;58.364;25.582;2023-03-31T12:08:00;99408.44;;;1.00;100.00
59767;BME280;46248;58.364;25.582;2023-03-31T12:11:28;99408.47;;;0.99;100.00
59767;BME280;46248;58.364;25.582;2023-03-31T12:14:58;99402.50;;;0.97;100.00
59767;BME280;46248;58.364;25.582;2023-03-31T12:18:25;99405.22;;;0.92;100.00
59767;BME280;46248;58.364;25.582;2023-03-31T12:21:50;99359.44;;;0.72;100.00
59767;BME280;46248;58.364;25.582;2023-03-31T12:25:15;99402.75;;;0.89;100.00
59767;BME280;46248;58.364;25.582;2023-03-31T12:28:44;99396.13;;;0.80;100.00
59767;BME280;46248;58.364;25.582;2023-03-31T12:32:11;99401.34;;;0.79;100.00
59767;BME280;46248;58.364;25.582;2023-03-31T12:35:40;99403.94;;;0.77;100.00
59767;BME280;46248;58.364;25.582;2023-03-31T12:39:21;99399.97;;;0.67;100.00
59767;BME280;46248;58.364;25.582;2023-03-31T12:43:00;99401.72;;;0.65;100.00
59767;BME280;46248;58.364;25.582;2023-03-31T12:46:49;99394.09;;;0.62;100.00
59767;BME280;46248;58.364;25.582;2023-03-31T12:50:27;99398.59;;;0.54;100.00
59767;BME280;46248;58.364;25.582;2023-03-31T12:54:07;99367.28;;;0.39;100.00
59767;BME280;46248;58.364;25.582;2023-03-31T12:57:35;99400.31;;;0.55;100.00
59767;BME280;46248;58.364;25.582;2023-03-31T13:01:02;99402.28;;;0.45;100.00
59767;BME280;46248;58.364;25.582;2023-03-31T13:04:27;99391.88;;;0.48;100.00
59767;BME280;46248;58.364;25.582;2023-03-31T13:07:49;99379.16;;;0.43;100.00
59767;BME280;46248;58.364;25.582;2023-03-31T13:11:12;99391.22;;;0.41;100.00
59767;BME280;46248;58.364;25.582;2023-03-31T13:14:36;99383.56;;;0.40;100.00
59767;BME280;46248;58.364;25.582;2023-03-31T13:17:59;99397.34;;;0.37;100.00
59767;BME280;46248;58.364;25.582;2023-03-31T13:21:24;99383.63;;;0.37;100.00
59767;BME280;46248;58.364;25.582;2023-03-31T13:24:46;99381.84;;;0.39;100.00
59767;BME280;46248;58.364;25.582;2023-03-31T13:28:12;99374.34;;;0.31;100.00
59767;BME280;46248;58.364;25.582;2023-03-31T13:32:17;99381.09;;;0.35;100.00
59767;BME280;46248;58.364;25.582;2023-03-31T13:35:44;99383.63;;;0.37;100.00
59767;BME280;46248;58.364;25.582;2023-03-31T13:39:25;99376.19;;;0.28;100.00
59767;BME280;46248;58.364;25.582;2023-03-31T13:43:01;99381.25;;;0.31;100.00
59767;BME280;46248;58.364;25.582;2023-03-31T13:46:45;99378.84;;;0.25;100.00
59767;BME280;46248;58.364;25.582;2023-03-31T13:54:43;99376.13;;;0.29;100.00
59767;BME280;46248;58.364;25.582;2023-03-31T13:58:28;99388.00;;;0.33;100.00
59767;BME280;46248;58.364;25.582;2023-03-31T14:02:10;99387.16;;;0.33;100.00
59767;BME280;46248;58.364;25.582;2023-03-31T14:05:42;99388.97;;;0.31;100.00
59767;BME280;46248;58.364;25.582;2023-03-31T14:09:07;99389.75;;;0.33;100.00
59767;BME280;46248;58.364;25.582;2023-03-31T14:12:34;99377.78;;;0.30;100.00
59767;BME280;46248;58.364;25.582;2023-03-31T14:15:57;99388.16;;;0.29;100.00
59767;BME280;46248;58.364;25.582;2023-03-31T14:19:53;99385.66;;;0.26;100.00
59767;BME280;46248;58.364;25.582;2023-03-31T14:23:29;99384.75;;;0.28;100.00
59767;BME280;46248;58.364;25.582;2023-03-31T14:27:01;99380.44;;;0.27;100.00
59767;BME280;46248;58.364;25.582;2023-03-31T14:30:36;99388.16;;;0.29;100.00
59767;BME280;46248;58.364;25.582;2023-03-31T14:34:14;99374.53;;;0.25;100.00
59767;BME280;46248;58.364;25.582;2023-03-31T14:37:40;99375.31;;;0.27;100.00
59767;BME280;46248;58.364;25.582;2023-03-31T14:41:02;99380.44;;;0.29;100.00
59767;BME280;46248;58.364;25.582;2023-03-31T14:44:24;99376.19;;;0.26;100.00
59767;BME280;46248;58.364;25.582;2023-03-31T14:47:56;99376.25;;;0.25;100.00
59767;BME280;46248;58.364;25.582;2023-03-31T14:51:25;99373.72;;;0.23;100.00
59767;BME280;46248;58.364;25.582;2023-03-31T14:54:47;99381.44;;;0.23;100.00
59767;BME280;46248;58.364;25.582;2023-03-31T14:58:12;99381.44;;;0.23;100.00
59767;BME280;46248;58.364;25.582;2023-03-31T15:01:37;99382.41;;;0.19;100.00
59767;BME280;46248;58.364;25.582;2023-03-31T15:05:03;99374.81;;;0.14;100.00
59767;BME280;46248;58.364;25.582;2023-03-31T15:08:28;99378.13;;;0.18;100.00
59767;BME280;46248;58.364;25.582;2023-03-31T15:11:55;99381.50;;;0.20;100.00
59767;BME280;46248;58.364;25.582;2023-03-31T15:15:19;99381.66;;;0.15;100.00
59767;BME280;46248;58.364;25.582;2023-03-31T15:18:44;99386.75;;;0.17;100.00
59767;BME280;46248;58.364;25.582;2023-03-31T15:22:11;99362.00;;;0.11;100.00
59767;BME280;46248;58.364;25.582;2023-03-31T15:25:35;99372.97;;;0.18;100.00
59767;BME280;46248;58.364;25.582;2023-03-31T15:29:03;99369.53;;;0.19;100.00
59767;BME280;46248;58.364;25.582;2023-03-31T15:32:29;99378.19;;;0.16;100.00
59767;BME280;46248;58.364;25.582;2023-03-31T15:35:52;99363.06;;;0.04;100.00
59767;BME280;46248;58.364;25.582;2023-03-31T15:39:15;99377.38;;;0.14;100.00
59767;BME280;46248;58.364;25.582;2023-03-31T15:42:38;99368.94;;;0.09;100.00
59767;BME280;46248;58.364;25.582;2023-03-31T15:46:02;99363.75;;;0.11;100.00
59767;BME280;46248;58.364;25.582;2023-03-31T15:49:25;99358.75;;;0.06;100.00
59767;BME280;46248;58.364;25.582;2023-03-31T15:52:49;99362.84;;;0.12;100.00
59767;BME280;46248;58.364;25.582;2023-03-31T15:56:28;99339.34;;;-0.07;100.00
59767;BME280;46248;58.364;25.582;2023-03-31T15:59:54;99375.78;;;0.10;100.00
59767;BME280;46248;58.364;25.582;2023-03-31T16:03:19;99368.13;;;0.07;100.00
59767;BME280;46248;58.364;25.582;2023-03-31T16:06:45;99382.59;;;0.11;100.00
59767;BME280;46248;58.364;25.582;2023-03-31T16:10:16;99381.69;;;0.14;100.00
59767;BME280;46248;58.364;25.582;2023-03-31T16:13:43;99379.09;;;0.15;100.00
59767;BME280;46248;58.364;25.582;2023-03-31T16:17:09;99380.13;;;0.08;100.00
59767;BME280;46248;58.364;25.582;2023-03-31T16:20:35;99371.56;;;0.08;100.00
59767;BME280;46248;58.364;25.582;2023-03-31T16:24:00;99366.53;;;0.03;100.00
59767;BME280;46248;58.364;25.582;2023-03-31T16:27:22;99357.19;;;0.01;100.00
59767;BME280;46248;58.364;25.582;2023-03-31T16:30:46;99357.19;;;0.01;100.00
59767;BME280;46248;58.364;25.582;2023-03-31T16:34:09;99364.06;;;0.00;100.00
59767;BME280;46248;58.364;25.582;2023-03-31T16:37:32;99373.38;;;0.04;100.00
59767;BME280;46248;58.364;25.582;2023-03-31T16:40:55;99369.19;;;0.00;100.00
59767;BME280;46248;58.364;25.582;2023-03-31T16:44:18;99377.78;;;-0.01;100.00
59767;BME280;46248;58.364;25.582;2023-03-31T16:47:41;99380.25;;;0.04;100.00
59767;BME280;46248;58.364;25.582;2023-03-31T16:51:05;99370.88;;;0.01;100.00
59767;BME280;46248;58.364;25.582;2023-03-31T16:54:27;99365.84;;;-0.04;100.00
59767;BME280;46248;58.364;25.582;2023-03-31T16:57:49;99379.50;;;0.00;100.00
59767;BME280;46248;58.364;25.582;2023-03-31T17:01:11;99374.41;;;-0.03;100.00
59767;BME280;46248;58.364;25.582;2023-03-31T17:04:36;99381.19;;;0.01;100.00
59767;BME280;46248;58.364;25.582;2023-03-31T17:07:58;99380.50;;;-0.06;100.00
59767;BME280;46248;58.364;25.582;2023-03-31T17:11:21;99387.25;;;-0.03;100.00
59767;BME280;46248;58.364;25.582;2023-03-31T17:14:43;99385.59;;;-0.04;100.00
59767;BME280;46248;58.364;25.582;2023-03-31T17:18:05;99385.66;;;-0.06;100.00
59767;BME280;46248;58.364;25.582;2023-03-31T17:21:29;99387.31;;;-0.05;100.00
59767;BME280;46248;58.364;25.582;2023-03-31T17:24:51;99386.59;;;-0.10;100.00
59767;BME280;46248;58.364;25.582;2023-03-31T17:28:18;99390.88;;;-0.09;100.00
59767;BME280;46248;58.364;25.582;2023-03-31T17:31:40;99389.25;;;-0.13;100.00
59767;BME280;46248;58.364;25.582;2023-03-31T17:35:03;99378.28;;;-0.19;100.00
59767;BME280;46248;58.364;25.582;2023-03-31T17:38:27;99396.09;;;-0.12;100.00
59767;BME280;46248;58.364;25.582;2023-03-31T17:41:49;99381.50;;;-0.11;100.00
59767;BME280;46248;58.364;25.582;2023-03-31T17:45:11;99390.97;;;-0.13;100.00
59767;BME280;46248;58.364;25.582;2023-03-31T17:48:33;99386.91;;;-0.22;100.00
59767;BME280;46248;58.364;25.582;2023-03-31T17:51:58;99393.63;;;-0.16;100.00
59767;BME280;46248;58.364;25.582;2023-03-31T17:55:21;99403.00;;;-0.14;100.00
59767;BME280;46248;58.364;25.582;2023-03-31T17:58:44;99403.81;;;-0.12;100.00
59767;BME280;46248;58.364;25.582;2023-03-31T18:02:08;99410.66;;;-0.12;100.00
59767;BME280;46248;58.364;25.582;2023-03-31T18:05:34;99406.47;;;-0.15;100.00